createdAt,value
2017-09-14T00:02:06.787Z,14.30
2017-09-14T00:04:34.300Z,14.30
2017-09-14T00:07:01.823Z,14.20
2017-09-14T00:09:29.335Z,14.10
2017-09-14T00:11:56.864Z,14.00
2017-09-14T00:14:24.375Z,13.90
2017-09-14T00:16:51.903Z,13.80
2017-09-14T00:19:19.416Z,13.80
2017-09-14T00:21:47.706Z,13.70
2017-09-14T00:24:15.219Z,13.60
2017-09-14T00:26:42.753Z,13.70
2017-09-14T00:29:10.269Z,13.60
2017-09-14T00:31:38.547Z,13.60
2017-09-14T00:34:06.839Z,13.50
2017-09-14T00:36:34.360Z,13.50
2017-09-14T00:39:01.896Z,13.50
2017-09-14T00:41:35.380Z,13.50
2017-09-14T00:44:02.899Z,13.50
2017-09-14T00:46:31.168Z,13.30
2017-09-14T00:48:59.463Z,13.20
2017-09-14T00:51:26.976Z,13.20
2017-09-14T00:53:55.263Z,13.10
2017-09-14T00:56:22.775Z,13.10
2017-09-14T00:58:50.300Z,13.00
2017-09-14T01:01:18.573Z,13.00
2017-09-14T01:03:46.868Z,13.00
2017-09-14T01:06:14.379Z,13.00
2017-09-14T01:08:41.909Z,13.00
2017-09-14T01:11:09.414Z,12.90
2017-09-14T01:13:37.699Z,12.90
2017-09-14T01:16:05.969Z,12.80
2017-09-14T01:18:34.259Z,12.70
2017-09-14T01:21:01.780Z,12.70
2017-09-14T01:23:29.343Z,12.60
2017-09-14T01:25:56.902Z,12.50
2017-09-14T01:28:26.025Z,12.50
2017-09-14T01:30:53.571Z,12.40
2017-09-14T01:33:21.848Z,12.30
2017-09-14T01:35:50.139Z,12.30
2017-09-14T01:38:18.411Z,12.20
2017-09-14T01:40:46.698Z,12.20
2017-09-14T01:43:14.203Z,12.10
2017-09-14T01:45:41.727Z,12.20
2017-09-14T01:48:09.226Z,12.20
2017-09-14T01:50:36.749Z,12.10
2017-09-14T01:53:04.266Z,12.10
2017-09-14T01:55:31.793Z,12.10
2017-09-14T01:57:59.312Z,12.10
2017-09-14T02:00:26.834Z,12.00
2017-09-14T02:02:54.342Z,11.90
2017-09-14T02:05:21.872Z,11.90
2017-09-14T02:07:50.152Z,11.90
2017-09-14T02:10:17.671Z,11.90
2017-09-14T02:12:45.170Z,12.10
2017-09-14T02:15:12.701Z,12.10
2017-09-14T02:17:40.203Z,12.00
2017-09-14T02:20:07.727Z,12.00
2017-09-14T02:22:36.003Z,11.90
2017-09-14T02:25:04.295Z,11.90
2017-09-14T02:27:32.571Z,12.00
2017-09-14T02:30:00.869Z,11.90
2017-09-14T02:32:28.379Z,11.90
2017-09-14T02:34:55.885Z,11.90
2017-09-14T02:37:23.412Z,11.90
2017-09-14T02:39:51.676Z,11.80
2017-09-14T02:42:19.199Z,11.80
2017-09-14T02:44:46.707Z,11.80
2017-09-14T02:47:15.014Z,11.70
2017-09-14T02:49:42.525Z,11.70
2017-09-14T02:52:10.049Z,11.60
2017-09-14T02:54:37.557Z,11.60
2017-09-14T02:57:05.855Z,11.50
2017-09-14T02:59:33.400Z,11.50
2017-09-14T03:02:00.953Z,11.50
2017-09-14T03:04:29.246Z,11.50
2017-09-14T03:06:56.792Z,11.50
2017-09-14T03:09:24.312Z,11.40
2017-09-14T03:11:51.834Z,11.30
2017-09-14T03:14:19.339Z,11.30
2017-09-14T03:16:46.864Z,11.40
2017-09-14T03:19:14.372Z,11.40
2017-09-14T03:21:42.655Z,11.40
2017-09-14T03:24:10.926Z,11.30
2017-09-14T03:26:38.476Z,11.30
2017-09-14T03:29:06.755Z,11.30
2017-09-14T03:31:35.258Z,11.30
2017-09-14T03:34:02.796Z,11.30
2017-09-14T03:36:31.067Z,11.30
2017-09-14T03:38:58.586Z,11.30
2017-09-14T03:41:26.087Z,11.30
2017-09-14T03:43:54.527Z,11.20
2017-09-14T03:46:22.031Z,11.20
2017-09-14T03:48:50.318Z,11.30
2017-09-14T03:51:18.592Z,11.40
2017-09-14T03:53:46.879Z,11.30
2017-09-14T03:56:14.387Z,11.30
2017-09-14T03:58:41.902Z,11.20
2017-09-14T04:01:09.410Z,11.20
2017-09-14T04:03:36.936Z,11.20
2017-09-14T04:06:04.438Z,11.10
2017-09-14T04:08:31.960Z,11.10
2017-09-14T04:10:59.472Z,11.10
2017-09-14T04:13:27.758Z,11.10
2017-09-14T04:15:55.272Z,11.10
2017-09-14T04:18:22.798Z,11.10
2017-09-14T04:20:50.303Z,11.10
2017-09-14T04:23:17.823Z,11.10
2017-09-14T04:25:45.331Z,11.00
2017-09-14T04:28:13.643Z,10.80
2017-09-14T04:30:41.279Z,10.90
2017-09-14T04:33:08.842Z,10.80
2017-09-14T04:35:36.371Z,10.80
2017-09-14T04:38:03.887Z,10.80
2017-09-14T04:40:31.476Z,10.80
2017-09-14T04:42:59.020Z,10.70
2017-09-14T04:45:26.563Z,10.60
2017-09-14T04:47:54.173Z,10.60
2017-09-14T04:50:22.472Z,10.50
2017-09-14T04:52:49.987Z,10.50
2017-09-14T04:55:17.509Z,10.50
2017-09-14T04:57:45.016Z,10.60
2017-09-14T05:00:12.543Z,10.60
2017-09-14T05:02:40.051Z,10.60
2017-09-14T05:05:08.341Z,10.60
2017-09-14T05:07:35.848Z,10.60
2017-09-14T05:10:03.364Z,10.60
2017-09-14T05:12:30.871Z,10.50
2017-09-14T05:14:58.388Z,10.60
2017-09-14T05:17:25.891Z,10.60
2017-09-14T05:19:53.419Z,10.60
2017-09-14T05:22:20.919Z,10.70
2017-09-14T05:24:48.447Z,10.70
2017-09-14T05:27:15.952Z,10.70
2017-09-14T05:29:44.249Z,10.80
2017-09-14T05:32:11.760Z,10.80
2017-09-14T05:34:39.272Z,10.90
2017-09-14T05:37:06.791Z,11.00
2017-09-14T05:39:34.293Z,11.10
2017-09-14T05:42:01.811Z,11.10
2017-09-14T05:44:30.087Z,11.30
2017-09-14T05:46:58.378Z,11.50
2017-09-14T05:49:26.644Z,11.60
2017-09-14T05:51:54.928Z,11.60
2017-09-14T05:54:23.205Z,11.60
2017-09-14T05:56:51.492Z,11.70
2017-09-14T05:59:19.008Z,11.60
2017-09-14T06:01:46.523Z,11.70
2017-09-14T06:04:14.023Z,11.80
2017-09-14T06:06:41.540Z,11.90
2017-09-14T06:09:09.039Z,12.00
2017-09-14T06:11:36.632Z,12.10
2017-09-14T06:14:04.197Z,12.20
2017-09-14T06:16:31.732Z,12.30
2017-09-14T06:19:02.594Z,12.50
2017-09-14T06:21:30.167Z,12.50
2017-09-14T06:23:57.669Z,12.80
2017-09-14T06:26:25.196Z,13.10
2017-09-14T06:28:52.707Z,13.40
2017-09-14T06:31:20.976Z,13.80
2017-09-14T06:33:48.496Z,13.80
2017-09-14T06:36:15.999Z,14.00
2017-09-14T06:38:44.287Z,14.50
2017-09-14T06:41:12.559Z,14.70
2017-09-14T06:43:40.843Z,15.00
2017-09-14T06:46:08.355Z,15.00
2017-09-14T06:48:36.191Z,15.40
2017-09-14T06:51:03.692Z,15.70
2017-09-14T06:53:31.206Z,15.80
2017-09-14T06:55:58.723Z,16.00
2017-09-14T06:58:27.007Z,16.10
2017-09-14T07:00:55.279Z,16.20
2017-09-14T07:03:23.566Z,16.50
2017-09-14T07:05:51.079Z,16.50
2017-09-14T07:08:18.603Z,16.60
2017-09-14T07:10:46.102Z,16.80
2017-09-14T07:13:13.624Z,17.10
2017-09-14T07:15:41.135Z,17.20
2017-09-14T07:18:08.651Z,17.20
2017-09-14T07:20:36.151Z,17.40
2017-09-14T07:23:03.671Z,17.60
2017-09-14T07:25:31.189Z,17.60
2017-09-14T07:27:58.702Z,17.60
2017-09-14T07:30:26.219Z,17.70
2017-09-14T07:32:53.728Z,17.90
2017-09-14T07:35:21.238Z,18.00
2017-09-14T07:37:48.743Z,18.30
2017-09-14T07:40:16.263Z,18.50
2017-09-14T07:42:43.767Z,18.50
2017-09-14T07:45:11.291Z,18.60
2017-09-14T07:47:38.840Z,19.20
2017-09-14T07:50:07.264Z,19.30
2017-09-14T07:52:34.790Z,19.60
2017-09-14T07:55:02.312Z,20.00
2017-09-14T07:57:30.579Z,20.20
2017-09-14T07:59:58.863Z,20.10
2017-09-14T08:02:27.129Z,20.20
2017-09-14T08:04:55.410Z,20.10
2017-09-14T08:07:23.678Z,20.50
2017-09-14T08:09:51.963Z,20.50
2017-09-14T08:12:20.231Z,20.30
2017-09-14T08:14:47.742Z,20.30
2017-09-14T08:17:15.239Z,20.50
2017-09-14T08:19:42.751Z,20.20
2017-09-14T08:22:10.249Z,20.10
2017-09-14T08:24:37.749Z,19.80
2017-09-14T08:27:05.275Z,19.80
2017-09-14T08:29:33.544Z,19.70
2017-09-14T08:32:01.843Z,19.40
2017-09-14T08:34:30.112Z,19.20
2017-09-14T08:36:58.391Z,18.80
2017-09-14T08:39:26.659Z,18.40
2017-09-14T08:41:54.943Z,18.00
2017-09-14T08:44:23.203Z,17.60
2017-09-14T08:46:51.500Z,17.30
2017-09-14T08:49:18.998Z,17.30
2017-09-14T08:51:46.515Z,17.10
2017-09-14T08:54:14.778Z,17.00
2017-09-14T08:56:43.064Z,16.50
2017-09-14T08:59:11.328Z,16.20
2017-09-14T09:01:39.607Z,16.00
2017-09-14T09:04:07.878Z,16.10
2017-09-14T09:06:36.163Z,16.10
2017-09-14T09:09:04.427Z,15.90
2017-09-14T09:11:31.938Z,15.80
2017-09-14T09:13:59.435Z,15.70
2017-09-14T09:16:26.947Z,15.60
2017-09-14T09:18:54.447Z,15.70
2017-09-14T09:21:22.055Z,15.60
2017-09-14T09:23:49.620Z,15.60
2017-09-14T09:26:17.152Z,15.40
2017-09-14T09:28:45.440Z,15.40
2017-09-14T09:31:14.630Z,15.10
2017-09-14T09:33:42.151Z,15.00
2017-09-14T09:36:09.646Z,14.70
2017-09-14T09:38:37.927Z,13.80
2017-09-14T09:41:05.428Z,13.80
2017-09-14T09:43:32.948Z,13.40
2017-09-14T09:46:00.446Z,13.20
2017-09-14T09:48:27.968Z,13.00
2017-09-14T09:50:55.472Z,12.90
2017-09-14T09:53:22.992Z,12.60
2017-09-14T09:55:50.494Z,12.50
2017-09-14T09:58:18.011Z,12.40
2017-09-14T10:00:45.822Z,12.30
2017-09-14T10:03:13.343Z,12.20
2017-09-14T10:05:40.843Z,12.10
2017-09-14T10:08:08.359Z,11.90
2017-09-14T10:10:35.863Z,11.80
2017-09-14T10:13:03.719Z,11.70
2017-09-14T10:15:31.215Z,11.60
2017-09-14T10:17:58.743Z,11.50
2017-09-14T10:20:26.239Z,11.50
2017-09-14T10:22:53.742Z,11.30
2017-09-14T10:25:21.260Z,11.20
2017-09-14T10:27:48.779Z,11.10
2017-09-14T10:30:16.294Z,11.00
2017-09-14T10:32:43.787Z,11.00
2017-09-14T10:35:11.304Z,10.80
2017-09-14T10:37:38.803Z,10.80
2017-09-14T10:40:06.323Z,10.70
2017-09-14T10:42:33.824Z,10.60
2017-09-14T10:45:01.339Z,10.50
2017-09-14T10:47:28.838Z,10.30
2017-09-14T10:49:56.356Z,10.30
2017-09-14T10:52:23.854Z,10.20
2017-09-14T10:54:51.408Z,10.10
2017-09-14T10:57:18.911Z,10.00
2017-09-14T10:59:46.431Z,9.90
2017-09-14T11:02:13.935Z,9.90
2017-09-14T11:04:41.451Z,9.80
2017-09-14T11:07:09.719Z,9.80
2017-09-14T11:09:37.230Z,9.70
2017-09-14T11:12:04.722Z,9.70
2017-09-14T11:14:32.243Z,9.70
2017-09-14T11:16:59.737Z,9.60
2017-09-14T11:19:27.251Z,9.60
2017-09-14T11:21:54.750Z,9.60
2017-09-14T11:24:22.247Z,9.70
2017-09-14T11:26:50.523Z,9.70
2017-09-14T11:29:18.778Z,9.90
2017-09-14T11:31:46.291Z,9.90
2017-09-14T11:34:13.799Z,10.00
2017-09-14T11:36:41.312Z,9.90
2017-09-14T11:39:08.815Z,9.90
2017-09-14T11:41:36.326Z,9.80
2017-09-14T11:44:03.819Z,9.80
2017-09-14T11:46:31.327Z,10.00
2017-09-14T11:48:58.823Z,9.90
2017-09-14T11:51:26.368Z,9.90
2017-09-14T11:56:45.027Z,9.80
2017-09-14T11:59:12.527Z,9.90
2017-09-14T12:01:40.044Z,9.70
2017-09-14T12:04:07.538Z,9.70
2017-09-14T12:06:35.051Z,9.70
2017-09-14T12:09:02.548Z,9.80
2017-09-14T12:11:30.059Z,9.80
2017-09-14T12:13:57.559Z,9.90
2017-09-14T12:16:25.067Z,9.90
2017-09-14T12:18:52.563Z,9.80
2017-09-14T12:21:20.076Z,9.70
2017-09-14T12:23:47.580Z,9.80
2017-09-14T12:26:15.095Z,9.70
2017-09-14T12:28:42.599Z,9.80
2017-09-14T12:31:10.131Z,9.60
2017-09-14T12:33:37.828Z,9.50
2017-09-14T12:36:05.903Z,9.70
2017-09-14T12:38:33.415Z,9.60
2017-09-14T12:41:00.920Z,9.60
2017-09-14T12:43:28.439Z,9.60
2017-09-14T12:45:55.936Z,9.70
2017-09-14T12:48:23.459Z,9.50
2017-09-14T12:50:50.956Z,9.50
2017-09-14T12:53:18.471Z,9.50
2017-09-14T12:55:45.969Z,9.50
2017-09-14T12:58:13.482Z,9.60
2017-09-14T13:00:40.979Z,9.60
2017-09-14T13:03:08.502Z,9.60
2017-09-14T13:05:36.040Z,9.50
2017-09-14T13:08:03.556Z,9.70
2017-09-14T13:10:31.051Z,9.60
2017-09-14T13:12:59.327Z,9.70
2017-09-14T13:15:27.584Z,9.70
2017-09-14T13:17:55.868Z,9.70
2017-09-14T13:20:24.127Z,9.50
2017-09-14T13:22:51.655Z,9.50
2017-09-14T13:25:19.152Z,9.60
2017-09-14T13:27:47.415Z,9.40
2017-09-14T13:30:14.923Z,9.40
2017-09-14T13:32:42.420Z,9.30
2017-09-14T13:35:09.926Z,9.20
2017-09-14T13:37:37.427Z,9.20
2017-09-14T13:40:04.939Z,9.00
2017-09-14T13:42:32.432Z,9.00
2017-09-14T13:44:59.940Z,8.90
2017-09-14T13:47:28.205Z,8.90
2017-09-14T13:49:55.715Z,8.90
2017-09-14T13:52:23.206Z,9.00
2017-09-14T13:54:50.722Z,9.00
2017-09-14T13:57:18.214Z,9.00
2017-09-14T13:59:45.727Z,9.00
2017-09-14T14:02:13.223Z,8.90
2017-09-14T14:04:40.735Z,8.90
2017-09-14T14:07:08.231Z,8.90
2017-09-14T14:09:35.744Z,8.90
2017-09-14T14:12:04.002Z,8.90
2017-09-14T14:14:31.512Z,8.90
2017-09-14T14:16:59.003Z,8.90
2017-09-14T14:19:26.511Z,8.90
2017-09-14T14:21:54.011Z,8.70
2017-09-14T14:24:21.510Z,8.70
2017-09-14T14:26:49.791Z,8.70
2017-09-14T14:29:17.283Z,8.60
2017-09-14T14:31:44.791Z,8.70
2017-09-14T14:34:13.057Z,8.50
2017-09-14T14:36:41.358Z,8.40
2017-09-14T14:39:08.851Z,8.40
2017-09-14T14:41:36.402Z,8.50
2017-09-14T14:44:03.961Z,8.50
2017-09-14T14:46:31.587Z,8.60
2017-09-14T14:48:59.948Z,8.70
2017-09-14T14:51:27.649Z,8.60
2017-09-14T14:53:55.265Z,8.70
2017-09-14T14:56:23.001Z,8.80
2017-09-14T14:58:52.000Z,8.70
2017-09-14T15:01:19.769Z,8.70
2017-09-14T15:03:48.183Z,8.80
2017-09-14T15:06:16.179Z,8.80
2017-09-14T15:08:43.764Z,8.90
2017-09-14T15:11:11.361Z,8.80
2017-09-14T15:13:39.681Z,8.80
2017-09-14T15:16:07.215Z,8.80
2017-09-14T15:18:35.479Z,8.80
2017-09-14T15:21:03.762Z,8.80
2017-09-14T15:23:32.023Z,8.90
2017-09-14T15:25:59.525Z,8.80
2017-09-14T15:28:27.050Z,8.90
2017-09-14T15:30:55.324Z,8.90
2017-09-14T15:33:23.600Z,9.00
2017-09-14T15:35:51.855Z,8.90
2017-09-14T15:38:19.362Z,8.90
2017-09-14T15:40:52.427Z,9.10
2017-09-14T15:43:26.308Z,8.90
2017-09-14T15:45:53.802Z,8.90
2017-09-14T15:48:27.096Z,9.00
2017-09-14T15:51:01.114Z,9.20
2017-09-14T15:53:28.647Z,9.20
2017-09-14T15:55:56.929Z,9.30
2017-09-14T15:58:25.218Z,9.20
2017-09-14T16:00:52.717Z,9.20
2017-09-14T16:03:20.228Z,9.30
2017-09-14T16:05:48.499Z,9.20
2017-09-14T16:08:16.784Z,9.20
2017-09-14T16:10:44.284Z,9.10
2017-09-14T16:13:11.795Z,9.20
2017-09-14T16:15:40.060Z,9.50
2017-09-14T16:18:08.363Z,9.40
2017-09-14T16:20:35.858Z,9.40
2017-09-14T16:23:03.355Z,9.40
2017-09-14T16:25:31.633Z,9.70
2017-09-14T16:27:59.936Z,9.60
2017-09-14T16:30:27.435Z,9.50
2017-09-14T16:32:54.927Z,9.60
2017-09-14T16:35:23.208Z,9.30
2017-09-14T16:37:51.475Z,9.40
2017-09-14T16:40:19.756Z,9.40
2017-09-14T16:42:48.024Z,9.50
2017-09-14T16:45:16.323Z,9.50
2017-09-14T16:47:43.914Z,9.40
2017-09-14T16:50:11.880Z,9.60
2017-09-14T16:52:39.536Z,9.70
2017-09-14T16:55:07.961Z,9.70
2017-09-14T16:57:36.321Z,9.70
2017-09-14T17:00:04.823Z,9.70
2017-09-14T17:02:32.711Z,9.60
2017-09-14T17:07:34.504Z,9.70
2017-09-14T17:10:02.083Z,9.70
2017-09-14T17:12:29.608Z,9.80
2017-09-14T17:14:58.893Z,9.90
2017-09-14T17:17:26.543Z,9.70
2017-09-14T17:19:54.874Z,9.80
2017-09-14T17:22:22.423Z,9.80
2017-09-14T17:24:49.974Z,9.80
2017-09-14T17:27:17.503Z,9.90
2017-09-14T17:29:45.771Z,9.80
2017-09-14T17:32:13.299Z,9.80
2017-09-14T17:34:40.813Z,9.80
2017-09-14T17:37:09.925Z,10.00
2017-09-14T17:39:37.504Z,10.00
2017-09-14T17:42:05.096Z,10.00
2017-09-14T17:44:32.675Z,9.90
2017-09-14T17:47:01.164Z,9.70
2017-09-14T17:49:28.732Z,9.60
2017-09-14T17:51:57.066Z,9.70
2017-09-14T17:54:26.002Z,9.80
2017-09-14T17:56:53.547Z,9.70
2017-09-14T17:59:21.078Z,9.70
2017-09-14T18:01:48.644Z,9.80
2017-09-14T18:04:16.144Z,9.90
2017-09-14T18:06:43.662Z,10.00
2017-09-14T18:09:11.156Z,10.00
2017-09-14T18:11:38.676Z,10.00
2017-09-14T18:14:06.191Z,9.90
2017-09-14T18:16:33.703Z,9.90
2017-09-14T18:19:01.971Z,9.90
2017-09-14T18:21:29.504Z,9.90
2017-09-14T18:23:57.023Z,10.00
2017-09-14T18:26:24.523Z,9.90
2017-09-14T18:28:52.036Z,9.90
2017-09-14T18:31:19.528Z,9.80
2017-09-14T18:33:47.038Z,9.80
2017-09-14T18:36:15.308Z,9.80
2017-09-14T18:38:43.588Z,9.60
2017-09-14T18:41:11.863Z,9.60
2017-09-14T18:43:40.143Z,9.50
2017-09-14T18:46:08.403Z,9.40
2017-09-14T18:48:36.691Z,9.40
2017-09-14T18:51:04.950Z,9.30
2017-09-14T18:53:32.467Z,9.30
2017-09-14T18:55:59.963Z,9.20
2017-09-14T18:58:27.471Z,9.20
2017-09-14T19:00:54.963Z,9.10
2017-09-14T19:03:22.504Z,9.10
2017-09-14T19:05:50.104Z,9.10
2017-09-14T19:08:18.448Z,9.20
2017-09-14T19:10:47.721Z,9.30
2017-09-14T19:13:15.286Z,9.30
2017-09-14T19:15:42.840Z,9.30
2017-09-14T19:18:10.368Z,9.20
2017-09-14T19:20:38.631Z,9.20
2017-09-14T19:23:06.163Z,9.20
2017-09-14T19:25:33.655Z,9.30
2017-09-14T19:28:01.929Z,9.20
2017-09-14T19:30:30.212Z,9.20
2017-09-14T19:32:58.476Z,9.20
2017-09-14T19:35:25.990Z,9.20
2017-09-14T19:37:53.483Z,9.20
2017-09-14T19:40:20.995Z,9.10
2017-09-14T19:42:48.496Z,9.10
2017-09-14T19:45:16.011Z,9.10
2017-09-14T19:47:43.511Z,9.10
2017-09-14T19:50:11.019Z,9.10
2017-09-14T19:52:38.512Z,9.00
2017-09-14T19:55:06.791Z,9.00
2017-09-14T19:57:34.282Z,9.00
2017-09-14T20:00:02.559Z,9.00
2017-09-14T20:02:30.823Z,9.00
2017-09-14T20:04:59.111Z,9.10
2017-09-14T20:07:27.377Z,9.00
2017-09-14T20:09:54.894Z,9.00
2017-09-14T20:12:22.393Z,9.10
2017-09-14T20:14:50.679Z,9.10
2017-09-14T20:17:18.938Z,9.10
2017-09-14T20:19:46.448Z,9.10
2017-09-14T20:22:13.940Z,9.10
2017-09-14T20:24:41.460Z,9.20
2017-09-14T20:27:08.959Z,9.10
2017-09-14T20:29:36.456Z,9.00
2017-09-14T20:32:03.976Z,9.10
2017-09-14T20:34:31.475Z,9.00
2017-09-14T20:36:58.991Z,9.00
2017-09-14T20:39:26.492Z,9.10
2017-09-14T20:41:54.012Z,9.00
2017-09-14T20:44:21.513Z,9.00
2017-09-14T20:46:49.028Z,9.10
2017-09-14T20:49:16.523Z,9.10
2017-09-14T20:51:44.036Z,9.00
2017-09-14T20:54:11.531Z,9.00
2017-09-14T20:56:39.808Z,9.10
2017-09-14T20:59:08.071Z,8.90
2017-09-14T21:01:36.360Z,8.90
2017-09-14T21:04:04.618Z,8.90
2017-09-14T21:06:32.903Z,9.00
2017-09-14T21:09:01.159Z,9.00
2017-09-14T21:11:28.675Z,9.00
2017-09-14T21:13:56.179Z,8.90
2017-09-14T21:16:23.695Z,8.90
2017-09-14T21:18:51.190Z,9.00
2017-09-14T21:21:18.708Z,9.00
2017-09-14T21:23:46.208Z,8.90
2017-09-14T21:26:13.716Z,9.00
2017-09-14T21:28:41.227Z,9.00
2017-09-14T21:31:08.723Z,8.90
2017-09-14T21:33:36.230Z,8.90
2017-09-14T21:36:03.724Z,8.90
2017-09-14T21:38:32.012Z,8.80
2017-09-14T21:40:59.516Z,8.80
2017-09-14T21:43:27.037Z,8.80
2017-09-14T21:45:54.531Z,8.70
2017-09-14T21:48:22.043Z,8.80
2017-09-14T21:50:49.538Z,8.80
2017-09-14T21:53:17.823Z,8.90
2017-09-14T21:55:45.319Z,8.80
2017-09-14T21:58:13.594Z,8.90
2017-09-14T22:00:41.852Z,8.90
2017-09-14T22:03:09.368Z,8.90
2017-09-14T22:05:36.864Z,8.90
2017-09-14T22:08:04.383Z,8.90
2017-09-14T22:10:31.883Z,9.00
2017-09-14T22:12:59.400Z,9.00
2017-09-14T22:15:26.960Z,9.00
2017-09-14T22:17:54.470Z,9.00
2017-09-14T22:20:23.030Z,9.00
2017-09-14T22:22:50.547Z,9.00
2017-09-14T22:25:18.059Z,9.00
2017-09-14T22:27:45.559Z,9.10
2017-09-14T22:30:13.078Z,9.00
2017-09-14T22:32:40.576Z,9.00
2017-09-14T22:35:08.088Z,9.10
2017-09-14T22:37:35.582Z,9.10
2017-09-14T22:40:03.091Z,9.10
2017-09-14T22:42:30.588Z,9.00
2017-09-14T22:44:58.862Z,9.00
2017-09-14T22:47:27.124Z,9.00
2017-09-14T22:49:55.408Z,9.00
2017-09-14T22:52:23.680Z,8.90
2017-09-14T22:54:51.959Z,9.00
2017-09-14T22:57:20.223Z,8.90
2017-09-14T22:59:47.735Z,8.90
2017-09-14T23:02:15.234Z,8.90
2017-09-14T23:04:42.746Z,8.90
2017-09-14T23:07:11.087Z,9.00
2017-09-14T23:09:39.367Z,8.90
2017-09-14T23:12:07.631Z,8.80
2017-09-14T23:14:35.907Z,8.90
2017-09-14T23:17:04.170Z,8.90
2017-09-14T23:19:31.679Z,8.90
2017-09-14T23:21:59.200Z,8.90
2017-09-14T23:24:26.702Z,8.90
2017-09-14T23:26:54.199Z,8.90
2017-09-14T23:29:21.700Z,8.80
2017-09-14T23:31:49.219Z,8.80
2017-09-14T23:34:16.714Z,8.80
2017-09-14T23:36:44.227Z,8.80
2017-09-14T23:39:11.727Z,8.80
2017-09-14T23:41:39.248Z,8.80
2017-09-14T23:44:06.742Z,8.70
2017-09-14T23:46:34.259Z,8.70
2017-09-14T23:49:01.751Z,8.70
2017-09-14T23:51:29.273Z,8.70
2017-09-14T23:53:56.767Z,8.70
2017-09-14T23:56:25.043Z,8.60
2017-09-14T23:58:52.539Z,8.60
